createdAt,value
2022-09-15T00:00:53.333Z,99817.47
2022-09-15T00:01:56.424Z,99817.19
2022-09-15T00:02:58.928Z,99821.75
2022-09-15T00:04:02.467Z,99818.28
2022-09-15T00:05:05.254Z,99819.06
2022-09-15T00:06:08.967Z,99822.59
2022-09-15T00:07:11.136Z,99818.03
2022-09-15T00:08:14.930Z,99820.97
2022-09-15T00:09:18.041Z,99832.25
2022-09-15T00:10:20.183Z,99818.03
2022-09-15T00:11:25.350Z,99822.59
2022-09-15T00:12:28.093Z,99825.53
2022-09-15T00:13:31.273Z,99832.78
2022-09-15T00:14:34.714Z,99837.31
2022-09-15T00:15:37.761Z,99836.78
2022-09-15T00:16:39.892Z,99836.22
2022-09-15T00:17:43.255Z,99841.03
2022-09-15T00:18:46.160Z,99833.69
2022-09-15T00:19:49.240Z,99835.31
2022-09-15T00:20:51.289Z,99831.25
2022-09-15T00:21:54.377Z,99832.56
2022-09-15T00:22:56.591Z,99823.13
2022-09-15T00:24:00.805Z,99828.97
2022-09-15T00:25:02.965Z,99827.63
2022-09-15T00:26:09.084Z,99823.00
2022-09-15T00:27:11.130Z,99823.00
2022-09-15T00:28:15.635Z,99822.69
2022-09-15T00:29:17.677Z,99822.94
2022-09-15T00:30:22.195Z,99818.03
2022-09-15T00:31:26.074Z,99817.50
2022-09-15T00:32:30.447Z,99819.28
2022-09-15T00:33:32.540Z,99827.09
2022-09-15T00:34:35.888Z,99815.44
2022-09-15T00:35:39.474Z,99822.22
2022-09-15T00:36:42.567Z,99831.31
2022-09-15T00:37:44.595Z,99820.03
2022-09-15T00:38:48.367Z,99826.47
2022-09-15T00:39:50.561Z,99825.88
2022-09-15T00:40:55.502Z,99824.53
2022-09-15T00:41:57.592Z,99823.13
2022-09-15T00:43:00.630Z,99822.09
2022-09-15T00:44:04.818Z,99811.84
2022-09-15T00:45:16.863Z,99818.81
2022-09-15T00:46:22.768Z,99822.59
2022-09-15T00:47:28.615Z,99815.56
2022-09-15T00:48:30.709Z,99809.41
2022-09-15T00:49:37.608Z,99818.25
2022-09-15T00:50:41.342Z,99820.94
2022-09-15T00:51:49.557Z,99815.56
2022-09-15T00:52:56.896Z,99814.78
2022-09-15T00:54:02.973Z,99806.72
2022-09-15T00:55:10.305Z,99811.00
2022-09-15T00:56:17.358Z,99802.13
2022-09-15T00:57:23.508Z,99802.94
2022-09-15T00:58:31.756Z,99805.63
2022-09-15T00:59:37.474Z,99806.47
2022-09-15T01:00:45.766Z,99801.09
2022-09-15T01:01:56.054Z,99804.81
2022-09-15T01:02:59.159Z,99794.81
2022-09-15T01:04:01.743Z,99799.94
2022-09-15T01:05:09.227Z,99811.59
2022-09-15T01:06:18.113Z,99806.22
2022-09-15T01:07:28.118Z,99802.69
2022-09-15T01:08:34.608Z,99805.38
2022-09-15T01:09:42.944Z,99812.38
2022-09-15T01:10:46.638Z,99807.00
2022-09-15T01:11:50.088Z,99810.75
2022-09-15T01:12:54.054Z,99804.31
2022-09-15T01:13:57.379Z,99792.97
2022-09-15T01:15:00.648Z,99797.31
2022-09-15T01:16:12.584Z,99809.69
2022-09-15T01:17:28.521Z,99808.91
2022-09-15T01:18:41.315Z,99798.41
2022-09-15T01:20:14.483Z,99812.38
2022-09-15T01:21:33.218Z,99806.22
2022-09-15T01:22:42.222Z,99807.00
2022-09-15T01:24:12.729Z,99808.06
2022-09-15T01:25:27.867Z,99808.06
2022-09-15T01:26:53.769Z,99812.38
2022-09-15T01:28:22.798Z,99810.19
2022-09-15T01:29:48.648Z,99797.31
2022-09-15T01:31:00.447Z,99810.50
2022-09-15T01:32:27.736Z,99807.25
2022-09-15T01:33:37.365Z,99809.69
2022-09-15T01:34:45.092Z,99804.31
2022-09-15T01:35:56.957Z,99805.13
2022-09-15T01:37:04.970Z,99808.66
2022-09-15T01:38:12.884Z,99808.41
2022-09-15T01:39:22.725Z,99806.78
2022-09-15T01:40:31.068Z,99802.19
2022-09-15T01:41:39.013Z,99807.56
2022-09-15T01:42:43.471Z,99811.09
2022-09-15T01:43:51.597Z,99803.03
2022-09-15T01:44:58.980Z,99806.53
2022-09-15T01:46:04.450Z,99803.84
2022-09-15T01:47:10.249Z,99795.16
2022-09-15T01:48:13.405Z,99805.47
2022-09-15T01:49:18.707Z,99804.63
2022-09-15T01:50:24.236Z,99803.59
2022-09-15T01:51:28.508Z,99809.75
2022-09-15T01:52:32.724Z,99801.69
2022-09-15T01:53:36.423Z,99803.34
2022-09-15T01:54:44.285Z,99805.22
2022-09-15T01:55:53.608Z,99802.78
2022-09-15T01:56:56.134Z,99803.34
2022-09-15T01:57:59.729Z,99805.22
2022-09-15T01:59:01.832Z,99806.03
2022-09-15T02:00:07.161Z,99808.72
2022-09-15T02:01:14.592Z,99810.59
2022-09-15T02:02:24.020Z,99807.91
2022-09-15T02:03:33.258Z,99807.06
2022-09-15T02:04:41.854Z,99806.03
2022-09-15T02:05:48.870Z,99800.66
2022-09-15T02:06:57.424Z,99800.66
2022-09-15T02:08:05.434Z,99800.66
2022-09-15T02:09:14.036Z,99800.66
2022-09-15T02:10:22.191Z,99792.59
2022-09-15T02:11:29.005Z,99792.28
2022-09-15T02:12:36.317Z,99792.59
2022-09-15T02:13:48.812Z,99804.16
2022-09-15T02:14:57.565Z,99803.34
2022-09-15T02:16:02.339Z,99800.66
2022-09-15T02:17:05.505Z,99801.47
2022-09-15T02:18:10.515Z,99800.66
2022-09-15T02:19:17.457Z,99802.25
2022-09-15T02:20:23.714Z,99808.72
2022-09-15T02:21:31.666Z,99814.66
2022-09-15T02:22:38.916Z,99821.09
2022-09-15T02:23:44.195Z,99806.59
2022-09-15T02:24:51.302Z,99816.78
2022-09-15T02:25:58.175Z,99823.25
2022-09-15T02:27:04.309Z,99827.84
2022-09-15T02:28:08.557Z,99834.03
2022-09-15T02:29:16.152Z,99833.22
2022-09-15T02:30:19.947Z,99834.03
2022-09-15T02:31:26.495Z,99836.69
2022-09-15T02:32:31.613Z,99839.88
2022-09-15T02:33:38.162Z,99832.41
2022-09-15T02:34:45.395Z,99838.84
2022-09-15T02:35:47.932Z,99833.16
2022-09-15T02:36:52.966Z,99832.59
2022-09-15T02:37:56.395Z,99833.09
2022-09-15T02:39:04.623Z,99824.94
2022-09-15T02:40:07.545Z,99841.88
2022-09-15T02:41:10.950Z,99838.63
2022-09-15T02:42:13.382Z,99829.19
2022-09-15T02:43:19.365Z,99834.81
2022-09-15T02:44:22.137Z,99828.28
2022-09-15T02:45:26.910Z,99833.44
2022-09-15T02:46:30.515Z,99827.75
2022-09-15T02:47:33.590Z,99822.38
2022-09-15T02:48:36.141Z,99823.41
2022-09-15T02:49:39.225Z,99817.38
2022-09-15T02:50:41.374Z,99828.47
2022-09-15T02:51:44.432Z,99821.72
2022-09-15T02:52:46.722Z,99826.84
2022-09-15T02:53:50.033Z,99817.38
2022-09-15T02:54:52.166Z,99816.59
2022-09-15T02:55:55.226Z,99818.47
2022-09-15T02:56:57.436Z,99826.50
2022-09-15T02:58:00.815Z,99814.16
2022-09-15T02:59:02.925Z,99823.25
2022-09-15T03:00:17.339Z,99820.56
2022-09-15T03:01:19.558Z,99822.47
2022-09-15T03:02:24.930Z,99822.69
2022-09-15T03:03:27.122Z,99829.94
2022-09-15T03:04:30.257Z,99825.63
2022-09-15T03:05:32.328Z,99820.50
2022-09-15T03:06:35.985Z,99825.88
2022-09-15T03:07:38.582Z,99824.50
2022-09-15T03:08:41.727Z,99835.00
2022-09-15T03:09:43.823Z,99826.94
2022-09-15T03:10:46.835Z,99829.63
2022-09-15T03:11:48.947Z,99822.59
2022-09-15T03:12:54.253Z,99824.25
2022-09-15T03:13:58.386Z,99818.88
2022-09-15T03:15:01.470Z,99821.56
2022-09-15T03:16:07.607Z,99823.44
2022-09-15T03:17:10.817Z,99825.06
2022-09-15T03:18:14.257Z,99825.88
2022-09-15T03:19:17.397Z,99829.38
2022-09-15T03:20:21.576Z,99833.66
2022-09-15T03:21:24.704Z,99832.88
2022-09-15T03:22:26.771Z,99833.66
2022-09-15T03:23:29.896Z,99834.50
2022-09-15T03:24:31.982Z,99831.56
2022-09-15T03:25:35.030Z,99834.00
2022-09-15T03:26:37.073Z,99837.50
2022-09-15T03:27:40.805Z,99839.13
2022-09-15T03:28:42.870Z,99839.13
2022-09-15T03:29:46.699Z,99844.50
2022-09-15T03:30:48.891Z,99844.25
2022-09-15T03:31:52.159Z,99836.19
2022-09-15T03:32:54.348Z,99837.00
2022-09-15T03:33:58.761Z,99837.25
2022-09-15T03:35:00.981Z,99836.44
2022-09-15T03:36:04.561Z,99838.88
2022-09-15T03:37:08.276Z,99855.81
2022-09-15T03:38:10.573Z,99832.38
2022-09-15T03:39:14.048Z,99838.88
2022-09-15T03:40:16.442Z,99842.38
2022-09-15T03:41:20.024Z,99835.41
2022-09-15T03:42:22.118Z,99837.25
2022-09-15T03:43:25.692Z,99831.06
2022-09-15T03:44:27.778Z,99830.28
2022-09-15T03:45:30.882Z,99841.81
2022-09-15T03:46:33.232Z,99841.00
2022-09-15T03:47:36.331Z,99834.00
2022-09-15T03:48:40.521Z,99832.38
2022-09-15T03:49:45.133Z,99828.88
2022-09-15T03:50:47.269Z,99825.38
2022-09-15T03:51:50.386Z,99824.81
2022-09-15T03:52:56.725Z,99825.88
2022-09-15T03:54:01.866Z,99823.19
2022-09-15T03:55:04.342Z,99825.53
2022-09-15T03:56:23.212Z,99821.81
2022-09-15T03:57:25.269Z,99825.53
2022-09-15T03:58:30.777Z,99823.09
2022-09-15T03:59:33.053Z,99823.09
2022-09-15T04:00:36.310Z,99832.81
2022-09-15T04:01:38.651Z,99828.47
2022-09-15T04:02:41.771Z,99828.47
2022-09-15T04:03:50.151Z,99821.47
2022-09-15T04:04:55.407Z,99817.97
2022-09-15T04:05:57.580Z,99827.69
2022-09-15T04:07:00.749Z,99820.66
2022-09-15T04:08:03.237Z,99824.16
2022-09-15T04:09:06.861Z,99822.31
2022-09-15T04:10:09.945Z,99832.22
2022-09-15T04:11:14.291Z,99817.97
2022-09-15T04:12:16.747Z,99823.09
2022-09-15T04:13:19.841Z,99818.78
2022-09-15T04:14:22.030Z,99825.00
2022-09-15T04:15:25.677Z,99823.59
2022-09-15T04:16:28.439Z,99825.00
2022-09-15T04:17:31.620Z,99817.97
2022-09-15T04:18:34.519Z,99821.47
2022-09-15T04:19:37.573Z,99819.63
2022-09-15T04:20:41.453Z,99828.72
2022-09-15T04:21:45.765Z,99815.28
2022-09-15T04:22:47.826Z,99810.75
2022-09-15T04:23:51.391Z,99804.53
2022-09-15T04:24:53.527Z,99803.72
2022-09-15T04:25:57.807Z,99807.22
2022-09-15T04:26:59.970Z,99809.09
2022-09-15T04:28:03.288Z,99805.38
2022-09-15T04:29:10.995Z,99817.16
2022-09-15T04:30:14.362Z,99804.53
2022-09-15T04:31:17.581Z,99809.09
2022-09-15T04:32:21.024Z,99800.50
2022-09-15T04:33:23.121Z,99804.53
2022-09-15T04:34:26.216Z,99806.41
2022-09-15T04:35:28.922Z,99804.53
2022-09-15T04:36:33.573Z,99809.09
2022-09-15T04:37:35.642Z,99803.72
2022-09-15T04:38:38.788Z,99806.41
2022-09-15T04:39:40.844Z,99804.78
2022-09-15T04:40:43.973Z,99806.66
2022-09-15T04:41:46.275Z,99805.88
2022-09-15T04:42:49.364Z,99805.88
2022-09-15T04:43:51.510Z,99811.25
2022-09-15T04:44:54.610Z,99811.25
2022-09-15T04:45:56.743Z,99810.41
2022-09-15T04:47:00.408Z,99814.97
2022-09-15T04:48:02.921Z,99808.81
2022-09-15T04:49:05.956Z,99814.16
2022-09-15T04:50:08.540Z,99813.34
2022-09-15T04:51:13.934Z,99819.53
2022-09-15T04:52:17.416Z,99816.84
2022-09-15T04:53:20.829Z,99813.34
2022-09-15T04:54:23.396Z,99812.28
2022-09-15T04:55:27.035Z,99806.13
2022-09-15T04:56:29.231Z,99816.03
2022-09-15T04:57:32.553Z,99808.81
2022-09-15T04:58:37.325Z,99812.28
2022-09-15T04:59:40.412Z,99803.44
2022-09-15T05:00:43.653Z,99810.41
2022-09-15T05:01:47.643Z,99807.72
2022-09-15T05:02:50.234Z,99805.03
2022-09-15T05:03:53.613Z,99813.09
2022-09-15T05:04:55.677Z,99810.16
2022-09-15T05:05:58.705Z,99805.88
2022-09-15T05:07:00.842Z,99805.88
2022-09-15T05:08:05.571Z,99806.66
2022-09-15T05:09:10.545Z,99808.31
2022-09-15T05:10:14.178Z,99807.47
2022-09-15T05:11:16.627Z,99809.09
2022-09-15T05:12:19.701Z,99804.53
2022-09-15T05:13:21.758Z,99792.97
2022-09-15T05:14:24.877Z,99805.38
2022-09-15T05:15:27.057Z,99799.19
2022-09-15T05:16:31.287Z,99802.69
2022-09-15T05:17:33.967Z,99802.69
2022-09-15T05:18:37.033Z,99802.69
2022-09-15T05:19:39.124Z,99795.66
2022-09-15T05:20:42.208Z,99805.38
2022-09-15T05:21:44.297Z,99801.63
2022-09-15T05:22:47.311Z,99795.66
2022-09-15T05:23:52.037Z,99804.28
2022-09-15T05:24:55.481Z,99805.13
2022-09-15T05:25:57.544Z,99798.94
2022-09-15T05:27:00.593Z,99803.72
2022-09-15T05:28:03.075Z,99811.31
2022-09-15T05:29:06.150Z,99809.41
2022-09-15T05:30:35.539Z,99803.25
2022-09-15T05:31:35.154Z,99812.59
2022-09-15T05:32:37.347Z,99806.75
2022-09-15T05:33:40.732Z,99803.25
2022-09-15T05:34:44.081Z,99803.25
2022-09-15T05:35:53.382Z,99799.50
2022-09-15T05:36:57.159Z,99795.19
2022-09-15T05:38:00.199Z,99799.50
2022-09-15T05:39:04.735Z,99799.50
2022-09-15T05:40:08.719Z,99806.50
2022-09-15T05:41:13.918Z,99804.06
2022-09-15T05:42:15.958Z,99805.69
2022-09-15T05:43:19.479Z,99802.44
2022-09-15T05:44:22.628Z,99804.28
2022-09-15T05:45:24.656Z,99800.00
2022-09-15T05:46:29.325Z,99804.22
2022-09-15T05:47:36.357Z,99810.16
2022-09-15T05:48:40.157Z,99807.72
2022-09-15T05:49:42.223Z,99812.28
2022-09-15T05:50:50.560Z,99815.78
2022-09-15T05:51:53.554Z,99810.66
2022-09-15T05:52:55.721Z,99814.97
2022-09-15T05:53:58.794Z,99812.28
2022-09-15T05:55:02.191Z,99818.72
2022-09-15T05:56:07.191Z,99813.69
2022-09-15T05:57:09.311Z,99823.34
2022-09-15T05:58:12.892Z,99815.88
2022-09-15T05:59:15.931Z,99811.84
2022-09-15T06:00:19.010Z,99819.69
2022-09-15T06:01:24.151Z,99822.94
2022-09-15T06:02:26.368Z,99817.31
2022-09-15T06:03:31.049Z,99825.16
2022-09-15T06:04:34.309Z,99824.91
2022-09-15T06:05:36.333Z,99823.81
2022-09-15T06:06:39.374Z,99816.34
2022-09-15T06:07:41.516Z,99826.84
2022-09-15T06:08:50.943Z,99816.66
2022-09-15T06:09:55.195Z,99812.34
2022-09-15T06:11:04.449Z,99818.03
2022-09-15T06:12:06.842Z,99814.31
2022-09-15T06:13:10.056Z,99813.47
2022-09-15T06:14:14.021Z,99818.84
2022-09-15T06:15:16.118Z,99817.25
2022-09-15T06:16:21.079Z,99821.78
2022-09-15T06:17:24.283Z,99825.53
2022-09-15T06:18:26.327Z,99826.59
2022-09-15T06:19:29.365Z,99822.28
2022-09-15T06:20:31.438Z,99822.03
2022-09-15T06:21:34.696Z,99829.28
2022-09-15T06:22:36.735Z,99820.16
2022-09-15T06:23:40.608Z,99825.31
2022-09-15T06:24:42.648Z,99826.91
2022-09-15T06:25:45.660Z,99831.53
2022-09-15T06:26:50.277Z,99828.34
2022-09-15T06:27:52.393Z,99825.19
2022-09-15T06:28:57.473Z,99830.56
2022-09-15T06:29:59.644Z,99831.44
2022-09-15T06:31:02.789Z,99836.56
2022-09-15T06:32:06.006Z,99839.03
2022-09-15T06:33:09.109Z,99865.09
2022-09-15T06:34:11.766Z,99860.53
2022-09-15T06:35:15.241Z,99861.31
2022-09-15T06:36:18.417Z,99856.44
2022-09-15T06:37:21.567Z,99852.16
2022-09-15T06:38:23.640Z,99854.25
2022-09-15T06:39:26.771Z,99857.19
2022-09-15T06:40:28.895Z,99842.38
2022-09-15T06:41:52.480Z,99836.41
2022-09-15T06:42:57.007Z,99838.56
2022-09-15T06:44:00.023Z,99843.34
2022-09-15T06:45:02.188Z,99847.34
2022-09-15T06:46:07.872Z,99847.34
2022-09-15T06:47:11.007Z,99844.91
2022-09-15T06:48:24.588Z,99848.66
2022-09-15T06:49:28.726Z,99856.97
2022-09-15T06:50:31.122Z,99850.19
2022-09-15T06:51:36.004Z,99852.88
2022-09-15T06:52:38.020Z,99856.63
2022-09-15T06:53:41.522Z,99853.13
2022-09-15T06:54:43.565Z,99859.56
2022-09-15T06:55:46.663Z,99857.69
2022-09-15T06:56:49.702Z,99857.69
2022-09-15T06:57:51.937Z,99849.63
2022-09-15T06:58:56.876Z,99852.31
2022-09-15T06:59:58.967Z,99845.63
2022-09-15T07:01:03.589Z,99852.38
2022-09-15T07:02:05.667Z,99852.72
2022-09-15T07:03:08.915Z,99852.25
2022-09-15T07:04:11.296Z,99849.06
2022-09-15T07:05:14.459Z,99856.63
2022-09-15T07:06:16.563Z,99854.25
2022-09-15T07:07:19.698Z,99845.94
2022-09-15T07:08:22.724Z,99846.84
2022-09-15T07:09:25.743Z,99858.72
2022-09-15T07:10:27.872Z,99850.72
2022-09-15T07:11:31.679Z,99855.13
2022-09-15T07:12:33.725Z,99857.88
2022-09-15T07:13:37.443Z,99875.13
2022-09-15T07:14:42.791Z,99854.75
2022-09-15T07:15:51.415Z,99862.06
2022-09-15T07:16:54.554Z,99862.38
2022-09-15T07:17:56.589Z,99851.63
2022-09-15T07:19:02.014Z,99863.53
2022-09-15T07:20:04.958Z,99864.63
2022-09-15T07:21:09.797Z,99866.06
2022-09-15T07:22:12.088Z,99866.91
2022-09-15T07:23:15.166Z,99854.84
2022-09-15T07:24:18.290Z,99864.28
2022-09-15T07:25:20.377Z,99864.84
2022-09-15T07:26:25.699Z,99870.25
2022-09-15T07:27:31.582Z,99867.81
2022-09-15T07:28:35.200Z,99861.59
2022-09-15T07:29:39.291Z,99868.31
2022-09-15T07:30:43.857Z,99861.31
2022-09-15T07:31:46.935Z,99859.91
2022-09-15T07:32:48.962Z,99862.03
2022-09-15T07:33:52.387Z,99862.53
2022-09-15T07:34:58.120Z,99856.34
2022-09-15T07:36:01.970Z,99865.25
2022-09-15T07:37:06.314Z,99860.69
2022-09-15T07:38:08.432Z,99861.47
2022-09-15T07:39:11.552Z,99863.69
2022-09-15T07:40:14.049Z,99865.31
2022-09-15T07:41:19.210Z,99861.31
2022-09-15T07:42:21.188Z,99870.75
2022-09-15T07:43:24.382Z,99871.31
2022-09-15T07:44:27.560Z,99856.78
2022-09-15T07:45:29.651Z,99873.50
2022-09-15T07:46:34.670Z,99875.94
2022-09-15T07:47:36.778Z,99867.59
2022-09-15T07:48:41.974Z,99870.03
2022-09-15T07:49:44.156Z,99873.31
2022-09-15T07:50:47.940Z,99873.06
2022-09-15T07:51:50.992Z,99869.31
2022-09-15T07:52:55.467Z,99866.38
2022-09-15T07:53:58.715Z,99878.50
2022-09-15T07:55:00.730Z,99879.88
2022-09-15T07:56:04.315Z,99882.31
2022-09-15T07:57:06.581Z,99889.88
2022-09-15T07:58:09.793Z,99891.28
2022-09-15T07:59:11.891Z,99885.63
2022-09-15T08:00:15.881Z,99886.16
2022-09-15T08:01:20.226Z,99884.06
2022-09-15T08:02:24.729Z,99885.19
2022-09-15T08:03:29.363Z,99893.00
2022-09-15T08:04:32.419Z,99893.56
2022-09-15T08:05:38.698Z,99884.16
2022-09-15T08:06:43.407Z,99886.13
2022-09-15T08:07:45.522Z,99886.13
2022-09-15T08:08:49.117Z,99889.91
2022-09-15T08:09:52.307Z,99882.66
2022-09-15T08:10:54.784Z,99886.72
2022-09-15T08:11:57.952Z,99893.47
2022-09-15T08:13:00.234Z,99893.22
2022-09-15T08:14:03.790Z,99895.41
2022-09-15T08:15:06.378Z,99895.72
2022-09-15T08:16:11.021Z,99897.31
2022-09-15T08:17:13.181Z,99891.47
2022-09-15T08:18:17.748Z,99895.25
2022-09-15T08:19:20.788Z,99896.38
2022-09-15T08:20:23.791Z,99890.47
2022-09-15T08:21:27.663Z,99881.88
2022-09-15T08:22:29.873Z,99891.91
2022-09-15T08:23:33.426Z,99898.66
2022-09-15T08:24:35.544Z,99896.53
2022-09-15T08:25:39.190Z,99900.56
2022-09-15T08:26:42.213Z,99898.44
2022-09-15T08:27:45.188Z,99899.00
2022-09-15T08:28:47.404Z,99894.97
2022-09-15T08:29:50.460Z,99896.38
2022-09-15T08:31:00.966Z,99891.56
2022-09-15T08:32:04.112Z,99891.88
2022-09-15T08:33:07.142Z,99892.16
2022-09-15T08:34:13.088Z,99895.16
2022-09-15T08:35:16.832Z,99896.78
2022-09-15T08:36:20.859Z,99884.38
2022-09-15T08:37:22.986Z,99887.91
2022-09-15T08:38:26.037Z,99893.59
2022-09-15T08:39:29.099Z,99897.69
2022-09-15T08:40:35.632Z,99897.97
2022-09-15T08:41:40.965Z,99904.47
2022-09-15T08:42:45.087Z,99898.28
2022-09-15T08:43:54.264Z,99898.88
2022-09-15T08:45:02.665Z,99895.69
2022-09-15T08:46:10.876Z,99906.31
2022-09-15T08:47:17.470Z,99900.97
2022-09-15T08:48:28.254Z,99897.25
2022-09-15T08:49:51.157Z,99905.13
2022-09-15T08:50:58.038Z,99905.97
2022-09-15T08:52:06.082Z,99906.50
2022-09-15T08:53:14.008Z,99895.16
2022-09-15T08:54:22.094Z,99902.47
2022-09-15T08:55:38.614Z,99905.97
2022-09-15T08:56:42.807Z,99901.63
2022-09-15T08:57:45.113Z,99913.00
2022-09-15T08:58:48.303Z,99910.28
2022-09-15T08:59:50.455Z,99907.88
2022-09-15T09:01:03.431Z,99911.94
2022-09-15T09:02:29.532Z,99903.34
2022-09-15T09:03:59.011Z,99903.66
2022-09-15T09:05:34.372Z,99899.34
2022-09-15T09:06:44.910Z,99897.22
2022-09-15T09:08:07.251Z,99906.16
2022-09-15T09:09:17.295Z,99903.75
2022-09-15T09:10:26.547Z,99899.41
2022-09-15T09:11:43.280Z,99894.03
2022-09-15T09:13:00.925Z,99905.13
2022-09-15T09:14:14.355Z,99902.19
2022-09-15T09:15:27.037Z,99905.72
2022-09-15T09:16:43.601Z,99907.34
2022-09-15T09:18:11.404Z,99905.75
2022-09-15T09:19:32.535Z,99910.06
2022-09-15T09:20:47.405Z,99904.13
2022-09-15T09:21:57.071Z,99913.28
2022-09-15T09:23:01.867Z,99910.03
2022-09-15T09:24:07.575Z,99915.44
2022-09-15T09:25:26.567Z,99923.28
2022-09-15T09:26:33.742Z,99920.31
2022-09-15T09:27:35.818Z,99919.22
2022-09-15T09:28:43.364Z,99936.53
2022-09-15T09:29:49.600Z,99952.16
2022-09-15T09:30:53.627Z,99938.88
2022-09-15T09:31:57.692Z,99943.16
2022-09-15T09:33:16.124Z,99949.28
2022-09-15T09:34:28.694Z,99949.41
2022-09-15T09:35:37.646Z,99951.16
2022-09-15T09:36:42.664Z,99946.44
2022-09-15T09:37:46.105Z,99936.84
2022-09-15T09:38:50.157Z,99949.63
2022-09-15T09:39:52.237Z,99941.97
2022-09-15T09:40:59.863Z,99942.09
2022-09-15T09:42:06.879Z,99936.88
2022-09-15T09:43:09.357Z,99929.25
2022-09-15T09:44:15.259Z,99931.28
2022-09-15T09:45:19.640Z,99936.09
2022-09-15T09:46:22.847Z,99944.94
2022-09-15T09:47:29.609Z,99930.09
2022-09-15T09:48:32.251Z,99927.09
2022-09-15T09:49:39.350Z,99930.03
2022-09-15T09:50:43.213Z,99925.16
2022-09-15T09:51:54.416Z,99920.84
2022-09-15T09:52:56.425Z,99920.03
2022-09-15T09:54:06.294Z,99917.59
2022-09-15T09:55:23.198Z,99916.84
2022-09-15T09:56:26.855Z,99923.59
2022-09-15T09:57:36.563Z,99917.72
2022-09-15T09:58:40.697Z,99924.75
2022-09-15T09:59:46.268Z,99916.47
2022-09-15T10:00:48.371Z,99914.41
2022-09-15T10:02:07.588Z,99920.16
2022-09-15T10:03:14.231Z,99922.63
2022-09-15T10:04:19.403Z,99927.56
2022-09-15T10:05:22.514Z,99919.06
2022-09-15T10:06:30.243Z,99912.13
2022-09-15T10:07:35.477Z,99919.50
2022-09-15T10:08:51.255Z,99904.47
2022-09-15T10:09:59.147Z,99909.94
2022-09-15T10:11:04.507Z,99927.25
2022-09-15T10:12:08.651Z,99921.91
2022-09-15T10:13:11.437Z,99918.41
2022-09-15T10:14:23.188Z,99920.31
2022-09-15T10:15:28.182Z,99911.97
2022-09-15T10:16:31.318Z,99920.41
2022-09-15T10:17:43.639Z,99925.28
2022-09-15T10:18:50.957Z,99935.56
2022-09-15T10:19:58.647Z,99925.56
2022-09-15T10:21:02.424Z,99923.13
2022-09-15T10:22:06.270Z,99918.84
2022-09-15T10:23:25.010Z,99923.16
2022-09-15T10:24:35.308Z,99923.41
2022-09-15T10:25:58.216Z,99920.97
2022-09-15T10:27:09.933Z,99930.16
2022-09-15T10:28:14.154Z,99931.78
2022-09-15T10:29:18.890Z,99923.69
2022-09-15T10:30:21.811Z,99921.53
2022-09-15T10:31:31.484Z,99925.84
2022-09-15T10:32:34.727Z,99929.38
2022-09-15T10:33:37.975Z,99920.19
2022-09-15T10:34:40.971Z,99910.78
2022-09-15T10:35:43.103Z,99922.13
2022-09-15T10:36:46.781Z,99909.72
2022-09-15T10:38:10.072Z,99910.81
2022-09-15T10:39:25.381Z,99916.25
2022-09-15T10:40:34.717Z,99919.81
2022-09-15T10:41:45.850Z,99914.72
2022-09-15T10:42:52.861Z,99914.75
2022-09-15T10:44:17.610Z,99910.41
2022-09-15T10:45:28.856Z,99908.81
2022-09-15T10:46:40.904Z,99915.31
2022-09-15T10:47:56.619Z,99913.72
2022-09-15T10:49:14.663Z,99909.16
2022-09-15T10:50:25.181Z,99907.25
2022-09-15T10:51:40.121Z,99903.50
2022-09-15T10:52:59.275Z,99908.66
2022-09-15T10:54:31.692Z,99910.00
2022-09-15T10:55:52.602Z,99906.81
2022-09-15T10:57:01.338Z,99905.72
2022-09-15T10:58:19.272Z,99906.28
2022-09-15T10:59:34.674Z,99920.34
2022-09-15T11:00:45.561Z,99920.34
2022-09-15T11:02:13.277Z,99930.09
2022-09-15T11:03:38.748Z,99913.34
2022-09-15T11:04:53.625Z,99927.16
2022-09-15T11:06:06.250Z,99915.50
2022-09-15T11:07:16.721Z,99919.03
2022-09-15T11:08:47.176Z,99916.31
2022-09-15T11:09:58.754Z,99918.47
2022-09-15T11:11:10.668Z,99908.50
2022-09-15T11:12:29.353Z,99924.16
2022-09-15T11:13:42.253Z,99917.41
2022-09-15T11:15:05.788Z,99926.59
2022-09-15T11:16:33.242Z,99924.16
2022-09-15T11:17:51.504Z,99925.53
2022-09-15T11:19:07.633Z,99935.00
2022-09-15T11:20:39.673Z,99947.44
2022-09-15T11:21:46.405Z,99939.84
2022-09-15T11:22:53.800Z,99935.00
2022-09-15T11:24:12.217Z,99955.28
2022-09-15T11:25:18.772Z,99955.00
2022-09-15T11:26:28.363Z,99959.53
2022-09-15T11:27:35.534Z,99952.75
2022-09-15T11:28:42.874Z,99949.44
2022-09-15T11:30:05.864Z,99946.91
2022-09-15T11:31:15.446Z,99943.28
2022-09-15T11:32:26.557Z,99945.06
2022-09-15T11:33:35.859Z,99941.47
2022-09-15T11:34:45.830Z,99942.19
2022-09-15T11:35:54.549Z,99942.44
2022-09-15T11:37:03.915Z,99928.88
2022-09-15T11:38:24.263Z,99942.66
2022-09-15T11:39:31.625Z,99942.41
2022-09-15T11:40:39.566Z,99948.34
2022-09-15T11:41:49.606Z,99934.06
2022-09-15T11:42:57.371Z,99941.63
2022-09-15T11:44:17.683Z,99940.34
2022-09-15T11:45:24.994Z,99946.59
2022-09-15T11:46:37.120Z,99941.53
2022-09-15T11:47:44.207Z,99936.19
2022-09-15T11:48:55.083Z,99945.72
2022-09-15T11:50:00.803Z,99935.81
2022-09-15T11:51:06.527Z,99932.59
2022-09-15T11:52:29.559Z,99931.53
2022-09-15T11:53:39.272Z,99935.88
2022-09-15T11:54:46.735Z,99940.44
2022-09-15T11:55:56.952Z,99939.09
2022-09-15T11:57:00.125Z,99946.66
2022-09-15T11:58:22.330Z,99941.25
2022-09-15T11:59:32.946Z,99943.69
2022-09-15T12:00:41.318Z,99936.41
2022-09-15T12:01:49.688Z,99935.31
2022-09-15T12:03:00.998Z,99939.88
2022-09-15T12:04:08.615Z,99939.09
2022-09-15T12:05:17.690Z,99942.84
2022-09-15T12:06:24.877Z,99934.19
2022-09-15T12:07:32.814Z,99937.44
2022-09-15T12:08:40.418Z,99940.41
2022-09-15T12:09:43.606Z,99929.88
2022-09-15T12:10:49.860Z,99931.00
2022-09-15T12:11:57.940Z,99935.88
2022-09-15T12:13:01.200Z,99931.06
2022-09-15T12:14:05.643Z,99921.34
2022-09-15T12:15:15.944Z,99927.88
2022-09-15T12:16:20.566Z,99926.81
2022-09-15T12:17:30.492Z,99941.97
2022-09-15T12:18:42.838Z,99933.09
2022-09-15T12:19:55.816Z,99926.88
2022-09-15T12:21:04.750Z,99933.94
2022-09-15T12:22:16.207Z,99929.59
2022-09-15T12:23:24.863Z,99938.25
2022-09-15T12:24:37.652Z,99929.59
2022-09-15T12:25:50.801Z,99940.41
2022-09-15T12:26:55.359Z,99919.03
2022-09-15T12:28:35.388Z,99932.00
2022-09-15T12:29:42.188Z,99933.91
2022-09-15T12:30:44.777Z,99936.34
2022-09-15T12:31:48.054Z,99940.94
2022-09-15T12:32:50.045Z,99942.56
2022-09-15T12:33:58.269Z,99936.09
2022-09-15T12:35:06.508Z,99931.72
2022-09-15T12:36:29.064Z,99934.97
2022-09-15T12:37:37.833Z,99923.06
2022-09-15T12:38:39.991Z,99934.16
2022-09-15T12:39:44.567Z,99932.28
2022-09-15T12:40:58.997Z,99931.22
2022-09-15T12:42:18.467Z,99933.66
2022-09-15T12:43:23.098Z,99938.78
2022-09-15T12:44:33.812Z,99927.69
2022-09-15T12:45:37.042Z,99925.53
2022-09-15T12:46:39.529Z,99934.44
2022-09-15T12:47:52.090Z,99923.09
2022-09-15T12:48:59.520Z,99931.75
2022-09-15T12:50:08.656Z,99925.81
2022-09-15T12:51:11.739Z,99916.03
2022-09-15T12:52:15.264Z,99929.56
2022-09-15T12:53:21.666Z,99920.88
2022-09-15T12:54:29.510Z,99907.59
2022-09-15T12:55:37.428Z,99926.78
2022-09-15T12:56:39.488Z,99921.91
2022-09-15T12:57:50.293Z,99937.88
2022-09-15T12:58:53.654Z,99928.91
2022-09-15T13:00:29.387Z,99937.53